sensor_id;sensor_type;location;lat;lon;timestamp;temperature;humidity
16313;DHT22;8265;52.622;13.296;2023-08-21T00:00:32;18.10;92.00
16313;DHT22;8265;52.622;13.296;2023-08-21T00:05:53;18.00;92.60
16313;DHT22;8265;52.622;13.296;2023-08-21T00:11:14;18.00;93.10
16313;DHT22;8265;52.622;13.296;2023-08-21T00:16:35;17.90;93.60
16313;DHT22;8265;52.622;13.296;2023-08-21T00:21:56;18.00;94.30
16313;DHT22;8265;52.622;13.296;2023-08-21T00:27:17;18.00;94.00
16313;DHT22;8265;52.622;13.296;2023-08-21T00:32:38;18.00;94.40
16313;DHT22;8265;52.622;13.296;2023-08-21T00:37:59;18.00;94.60
16313;DHT22;8265;52.622;13.296;2023-08-21T00:43:20;17.90;94.60
16313;DHT22;8265;52.622;13.296;2023-08-21T00:48:41;17.90;95.20
16313;DHT22;8265;52.622;13.296;2023-08-21T00:54:02;17.80;95.30
16313;DHT22;8265;52.622;13.296;2023-08-21T00:59:23;17.80;95.50
16313;DHT22;8265;52.622;13.296;2023-08-21T01:04:44;17.70;95.70
16313;DHT22;8265;52.622;13.296;2023-08-21T01:10:10;17.70;95.90
16313;DHT22;8265;52.622;13.296;2023-08-21T01:15:26;17.90;95.70
16313;DHT22;8265;52.622;13.296;2023-08-21T01:20:47;18.00;95.70
16313;DHT22;8265;52.622;13.296;2023-08-21T01:26:08;17.80;95.90
16313;DHT22;8265;52.622;13.296;2023-08-21T01:31:33;17.80;95.90
16313;DHT22;8265;52.622;13.296;2023-08-21T01:36:50;17.70;96.20
16313;DHT22;8265;52.622;13.296;2023-08-21T01:42:11;17.80;96.60
16313;DHT22;8265;52.622;13.296;2023-08-21T01:47:32;17.80;96.50
16313;DHT22;8265;52.622;13.296;2023-08-21T01:52:53;17.90;96.50
16313;DHT22;8265;52.622;13.296;2023-08-21T01:58:14;18.00;96.40
16313;DHT22;8265;52.622;13.296;2023-08-21T02:03:35;18.10;96.10
16313;DHT22;8265;52.622;13.296;2023-08-21T02:08:56;18.20;95.90
16313;DHT22;8265;52.622;13.296;2023-08-21T02:14:17;18.30;95.60
16313;DHT22;8265;52.622;13.296;2023-08-21T02:19:38;18.40;95.60
16313;DHT22;8265;52.622;13.296;2023-08-21T02:24:59;18.40;95.70
16313;DHT22;8265;52.622;13.296;2023-08-21T02:30:20;18.40;95.50
16313;DHT22;8265;52.622;13.296;2023-08-21T02:35:41;18.40;95.40
16313;DHT22;8265;52.622;13.296;2023-08-21T02:41:02;18.50;95.10
16313;DHT22;8265;52.622;13.296;2023-08-21T02:46:23;18.60;95.20
16313;DHT22;8265;52.622;13.296;2023-08-21T02:51:44;18.60;94.70
16313;DHT22;8265;52.622;13.296;2023-08-21T02:57:05;18.70;94.50
16313;DHT22;8265;52.622;13.296;2023-08-21T03:02:26;18.70;94.50
16313;DHT22;8265;52.622;13.296;2023-08-21T03:07:47;18.80;94.40
16313;DHT22;8265;52.622;13.296;2023-08-21T03:13:08;18.80;94.10
16313;DHT22;8265;52.622;13.296;2023-08-21T03:18:29;18.90;94.20
16313;DHT22;8265;52.622;13.296;2023-08-21T03:23:57;18.80;94.30
16313;DHT22;8265;52.622;13.296;2023-08-21T03:29:11;18.60;94.40
16313;DHT22;8265;52.622;13.296;2023-08-21T03:34:32;18.50;94.90
16313;DHT22;8265;52.622;13.296;2023-08-21T03:39:53;18.40;94.90
16313;DHT22;8265;52.622;13.296;2023-08-21T03:45:14;18.30;95.00
16313;DHT22;8265;52.622;13.296;2023-08-21T03:50:35;18.20;95.50
16313;DHT22;8265;52.622;13.296;2023-08-21T03:55:56;18.10;95.90
16313;DHT22;8265;52.622;13.296;2023-08-21T04:01:17;18.10;95.80
16313;DHT22;8265;52.622;13.296;2023-08-21T04:06:38;18.00;95.80
16313;DHT22;8265;52.622;13.296;2023-08-21T04:11:59;18.00;96.10
16313;DHT22;8265;52.622;13.296;2023-08-21T04:17:20;18.00;96.20
16313;DHT22;8265;52.622;13.296;2023-08-21T04:22:40;18.00;95.80
16313;DHT22;8265;52.622;13.296;2023-08-21T04:28:02;17.90;95.50
16313;DHT22;8265;52.622;13.296;2023-08-21T04:33:24;18.10;94.40
16313;DHT22;8265;52.622;13.296;2023-08-21T04:38:43;18.30;93.50
16313;DHT22;8265;52.622;13.296;2023-08-21T04:44:04;18.40;93.40
16313;DHT22;8265;52.622;13.296;2023-08-21T04:49:25;18.50;93.00
16313;DHT22;8265;52.622;13.296;2023-08-21T04:54:50;18.70;92.70
16313;DHT22;8265;52.622;13.296;2023-08-21T05:00:08;18.80;92.30
16313;DHT22;8265;52.622;13.296;2023-08-21T05:05:28;18.90;91.70
16313;DHT22;8265;52.622;13.296;2023-08-21T05:10:58;19.00;91.60
16313;DHT22;8265;52.622;13.296;2023-08-21T05:16:10;19.10;91.30
16313;DHT22;8265;52.622;13.296;2023-08-21T05:21:31;19.10;92.00
16313;DHT22;8265;52.622;13.296;2023-08-21T05:26:52;19.20;92.20
16313;DHT22;8265;52.622;13.296;2023-08-21T05:32:13;19.30;92.00
16313;DHT22;8265;52.622;13.296;2023-08-21T05:37:34;19.40;91.80
16313;DHT22;8265;52.622;13.296;2023-08-21T05:42:55;19.40;91.70
16313;DHT22;8265;52.622;13.296;2023-08-21T05:48:16;19.50;91.30
16313;DHT22;8265;52.622;13.296;2023-08-21T05:53:37;19.50;90.90
16313;DHT22;8265;52.622;13.296;2023-08-21T05:58:58;19.50;91.40
16313;DHT22;8265;52.622;13.296;2023-08-21T06:04:19;19.50;91.00
16313;DHT22;8265;52.622;13.296;2023-08-21T06:09:40;19.80;89.30
16313;DHT22;8265;52.622;13.296;2023-08-21T06:15:01;19.90;89.30
16313;DHT22;8265;52.622;13.296;2023-08-21T06:20:22;19.80;89.50
16313;DHT22;8265;52.622;13.296;2023-08-21T06:25:43;19.90;88.80
16313;DHT22;8265;52.622;13.296;2023-08-21T06:31:04;20.00;88.70
16313;DHT22;8265;52.622;13.296;2023-08-21T06:36:25;20.10;87.80
16313;DHT22;8265;52.622;13.296;2023-08-21T06:41:46;20.30;87.60
16313;DHT22;8265;52.622;13.296;2023-08-21T06:47:07;20.50;86.70
16313;DHT22;8265;52.622;13.296;2023-08-21T06:52:28;20.60;85.80
16313;DHT22;8265;52.622;13.296;2023-08-21T06:57:49;20.80;85.70
16313;DHT22;8265;52.622;13.296;2023-08-21T07:03:10;21.10;83.80
16313;DHT22;8265;52.622;13.296;2023-08-21T07:08:31;21.50;82.20
16313;DHT22;8265;52.622;13.296;2023-08-21T07:13:52;21.70;81.50
16313;DHT22;8265;52.622;13.296;2023-08-21T07:19:13;21.70;79.70
16313;DHT22;8265;52.622;13.296;2023-08-21T07:24:34;21.70;79.60
16313;DHT22;8265;52.622;13.296;2023-08-21T07:29:55;21.80;77.10
16313;DHT22;8265;52.622;13.296;2023-08-21T07:35:16;21.90;77.70
16313;DHT22;8265;52.622;13.296;2023-08-21T07:40:37;22.30;74.40
16313;DHT22;8265;52.622;13.296;2023-08-21T07:46:01;22.60;73.70
16313;DHT22;8265;52.622;13.296;2023-08-21T07:51:19;22.70;73.80
16313;DHT22;8265;52.622;13.296;2023-08-21T07:56:40;22.90;72.40
16313;DHT22;8265;52.622;13.296;2023-08-21T08:02:01;23.20;71.40
16313;DHT22;8265;52.622;13.296;2023-08-21T08:07:22;23.30;64.20
16313;DHT22;8265;52.622;13.296;2023-08-21T08:12:43;23.40;62.30
16313;DHT22;8265;52.622;13.296;2023-08-21T08:18:04;23.30;62.80
16313;DHT22;8265;52.622;13.296;2023-08-21T08:23:25;23.80;59.80
16313;DHT22;8265;52.622;13.296;2023-08-21T08:28:46;24.00;57.20
16313;DHT22;8265;52.622;13.296;2023-08-21T08:34:07;24.20;54.40
16313;DHT22;8265;52.622;13.296;2023-08-21T08:39:28;24.20;54.50
16313;DHT22;8265;52.622;13.296;2023-08-21T08:44:49;24.20;53.90
16313;DHT22;8265;52.622;13.296;2023-08-21T08:50:11;24.70;53.70
16313;DHT22;8265;52.622;13.296;2023-08-21T08:55:31;25.00;52.10
16313;DHT22;8265;52.622;13.296;2023-08-21T09:00:52;25.30;51.20
16313;DHT22;8265;52.622;13.296;2023-08-21T09:06:13;26.10;51.80
16313;DHT22;8265;52.622;13.296;2023-08-21T09:11:34;26.20;50.10
16313;DHT22;8265;52.622;13.296;2023-08-21T09:16:59;26.20;49.80
16313;DHT22;8265;52.622;13.296;2023-08-21T09:22:17;25.80;51.10
16313;DHT22;8265;52.622;13.296;2023-08-21T09:27:38;25.80;51.40
16313;DHT22;8265;52.622;13.296;2023-08-21T09:32:59;25.90;52.00
16313;DHT22;8265;52.622;13.296;2023-08-21T09:38:19;25.80;51.40
16313;DHT22;8265;52.622;13.296;2023-08-21T09:43:41;25.60;51.60
16313;DHT22;8265;52.622;13.296;2023-08-21T09:49:01;25.90;51.80
16313;DHT22;8265;52.622;13.296;2023-08-21T09:54:22;26.00;51.40
16313;DHT22;8265;52.622;13.296;2023-08-21T09:59:43;25.60;51.30
16313;DHT22;8265;52.622;13.296;2023-08-21T10:05:04;25.60;51.70
16313;DHT22;8265;52.622;13.296;2023-08-21T10:10:25;26.40;50.60
16313;DHT22;8265;52.622;13.296;2023-08-21T10:15:46;26.70;48.20
16313;DHT22;8265;52.622;13.296;2023-08-21T10:21:11;26.00;49.40
16313;DHT22;8265;52.622;13.296;2023-08-21T10:26:28;26.20;49.60
16313;DHT22;8265;52.622;13.296;2023-08-21T10:31:58;26.10;49.70
16313;DHT22;8265;52.622;13.296;2023-08-21T10:37:10;26.00;51.70
16313;DHT22;8265;52.622;13.296;2023-08-21T10:42:40;26.00;52.10
16313;DHT22;8265;52.622;13.296;2023-08-21T10:47:52;26.70;51.70
16313;DHT22;8265;52.622;13.296;2023-08-21T10:53:13;27.00;49.40
16313;DHT22;8265;52.622;13.296;2023-08-21T10:58:43;26.90;50.00
16313;DHT22;8265;52.622;13.296;2023-08-21T11:03:55;26.70;49.50
16313;DHT22;8265;52.622;13.296;2023-08-21T11:09:16;26.50;50.00
16313;DHT22;8265;52.622;13.296;2023-08-21T11:14:37;27.10;47.80
16313;DHT22;8265;52.622;13.296;2023-08-21T11:20:00;26.90;48.50
16313;DHT22;8265;52.622;13.296;2023-08-21T11:25:19;27.00;47.60
16313;DHT22;8265;52.622;13.296;2023-08-21T11:30:40;27.20;48.70
16313;DHT22;8265;52.622;13.296;2023-08-21T11:36:01;27.20;46.20
16313;DHT22;8265;52.622;13.296;2023-08-21T11:41:22;26.90;48.10
16313;DHT22;8265;52.622;13.296;2023-08-21T11:46:43;27.10;48.10
16313;DHT22;8265;52.622;13.296;2023-08-21T11:52:04;27.40;47.10
16313;DHT22;8265;52.622;13.296;2023-08-21T11:57:25;27.00;50.70
16313;DHT22;8265;52.622;13.296;2023-08-21T12:02:55;27.40;49.30
16313;DHT22;8265;52.622;13.296;2023-08-21T12:08:07;27.40;50.10
16313;DHT22;8265;52.622;13.296;2023-08-21T12:13:28;27.20;51.20
16313;DHT22;8265;52.622;13.296;2023-08-21T12:18:49;27.20;51.10
16313;DHT22;8265;52.622;13.296;2023-08-21T12:24:10;27.20;49.20
16313;DHT22;8265;52.622;13.296;2023-08-21T12:29:31;26.60;50.70
16313;DHT22;8265;52.622;13.296;2023-08-21T12:34:52;26.40;51.70
16313;DHT22;8265;52.622;13.296;2023-08-21T12:40:13;26.50;48.90
16313;DHT22;8265;52.622;13.296;2023-08-21T12:45:35;26.80;47.20
16313;DHT22;8265;52.622;13.296;2023-08-21T12:50:55;26.70;47.80
16313;DHT22;8265;52.622;13.296;2023-08-21T12:56:16;26.30;48.60
16313;DHT22;8265;52.622;13.296;2023-08-21T13:01:37;26.40;46.70
16313;DHT22;8265;52.622;13.296;2023-08-21T13:06:58;26.90;47.50
16313;DHT22;8265;52.622;13.296;2023-08-21T13:12:19;26.70;47.30
16313;DHT22;8265;52.622;13.296;2023-08-21T13:17:40;26.60;47.40
16313;DHT22;8265;52.622;13.296;2023-08-21T13:23:01;26.80;47.20
16313;DHT22;8265;52.622;13.296;2023-08-21T13:28:22;27.20;46.80
16313;DHT22;8265;52.622;13.296;2023-08-21T13:33:46;27.30;50.00
16313;DHT22;8265;52.622;13.296;2023-08-21T13:39:04;27.80;48.00
16313;DHT22;8265;52.622;13.296;2023-08-21T13:44:25;27.90;46.00
16313;DHT22;8265;52.622;13.296;2023-08-21T13:49:46;27.50;46.20
16313;DHT22;8265;52.622;13.296;2023-08-21T13:55:07;27.50;47.30
16313;DHT22;8265;52.622;13.296;2023-08-21T14:00:28;28.10;42.60
16313;DHT22;8265;52.622;13.296;2023-08-21T14:05:49;28.70;41.50
16313;DHT22;8265;52.622;13.296;2023-08-21T14:11:10;28.50;41.20
16313;DHT22;8265;52.622;13.296;2023-08-21T14:16:31;28.10;40.50
16313;DHT22;8265;52.622;13.296;2023-08-21T14:21:52;28.30;41.30
16313;DHT22;8265;52.622;13.296;2023-08-21T14:27:13;28.10;43.00
16313;DHT22;8265;52.622;13.296;2023-08-21T14:32:34;28.10;42.80
16313;DHT22;8265;52.622;13.296;2023-08-21T14:37:55;28.30;41.80
16313;DHT22;8265;52.622;13.296;2023-08-21T14:43:16;28.90;40.70
16313;DHT22;8265;52.622;13.296;2023-08-21T14:48:37;28.70;40.80
16313;DHT22;8265;52.622;13.296;2023-08-21T14:53:58;28.40;41.00
16313;DHT22;8265;52.622;13.296;2023-08-21T14:59:19;29.10;40.40
16313;DHT22;8265;52.622;13.296;2023-08-21T15:04:40;29.40;41.00
16313;DHT22;8265;52.622;13.296;2023-08-21T15:10:01;28.50;41.30
16313;DHT22;8265;52.622;13.296;2023-08-21T15:15:22;27.20;43.60
16313;DHT22;8265;52.622;13.296;2023-08-21T15:20:43;27.80;44.40
16313;DHT22;8265;52.622;13.296;2023-08-21T15:26:04;28.10;43.40
16313;DHT22;8265;52.622;13.296;2023-08-21T15:31:25;27.20;44.50
16313;DHT22;8265;52.622;13.296;2023-08-21T15:36:46;27.50;44.70
16313;DHT22;8265;52.622;13.296;2023-08-21T15:42:07;28.10;45.60
16313;DHT22;8265;52.622;13.296;2023-08-21T15:47:28;28.30;43.60
16313;DHT22;8265;52.622;13.296;2023-08-21T15:52:49;28.60;43.50
16313;DHT22;8265;52.622;13.296;2023-08-21T15:58:10;28.40;42.70
16313;DHT22;8265;52.622;13.296;2023-08-21T16:03:31;28.00;46.50
16313;DHT22;8265;52.622;13.296;2023-08-21T16:08:52;27.80;44.00
16313;DHT22;8265;52.622;13.296;2023-08-21T16:14:13;27.90;43.40
16313;DHT22;8265;52.622;13.296;2023-08-21T16:19:34;27.50;43.90
16313;DHT22;8265;52.622;13.296;2023-08-21T16:24:55;27.30;44.60
16313;DHT22;8265;52.622;13.296;2023-08-21T16:30:16;27.50;45.20
16313;DHT22;8265;52.622;13.296;2023-08-21T16:35:37;27.10;45.10
16313;DHT22;8265;52.622;13.296;2023-08-21T16:40:58;26.80;48.50
16313;DHT22;8265;52.622;13.296;2023-08-21T16:46:18;26.70;46.40
16313;DHT22;8265;52.622;13.296;2023-08-21T16:51:39;26.50;47.50
16313;DHT22;8265;52.622;13.296;2023-08-21T16:57:01;26.20;47.30
16313;DHT22;8265;52.622;13.296;2023-08-21T17:02:21;26.20;47.90
16313;DHT22;8265;52.622;13.296;2023-08-21T17:07:42;25.80;48.00
16313;DHT22;8265;52.622;13.296;2023-08-21T17:13:04;25.60;55.00
16313;DHT22;8265;52.622;13.296;2023-08-21T17:18:25;25.30;50.20
16313;DHT22;8265;52.622;13.296;2023-08-21T17:23:45;24.80;52.30
16313;DHT22;8265;52.622;13.296;2023-08-21T17:29:06;24.40;50.40
16313;DHT22;8265;52.622;13.296;2023-08-21T17:34:27;24.20;54.10
16313;DHT22;8265;52.622;13.296;2023-08-21T17:39:48;23.80;55.90
16313;DHT22;8265;52.622;13.296;2023-08-21T17:45:09;23.50;57.70
16313;DHT22;8265;52.622;13.296;2023-08-21T17:50:30;22.90;60.50
16313;DHT22;8265;52.622;13.296;2023-08-21T17:55:51;22.30;63.00
16313;DHT22;8265;52.622;13.296;2023-08-21T18:01:12;21.90;64.00
16313;DHT22;8265;52.622;13.296;2023-08-21T18:06:33;21.50;66.50
16313;DHT22;8265;52.622;13.296;2023-08-21T18:11:54;21.10;66.50
16313;DHT22;8265;52.622;13.296;2023-08-21T18:17:15;20.70;69.20
16313;DHT22;8265;52.622;13.296;2023-08-21T18:22:36;20.50;70.30
16313;DHT22;8265;52.622;13.296;2023-08-21T18:27:57;20.30;69.90
16313;DHT22;8265;52.622;13.296;2023-08-21T18:33:18;20.00;71.20
16313;DHT22;8265;52.622;13.296;2023-08-21T18:38:39;19.70;71.30
16313;DHT22;8265;52.622;13.296;2023-08-21T18:44:00;19.50;68.90
16313;DHT22;8265;52.622;13.296;2023-08-21T18:49:21;19.50;70.30
16313;DHT22;8265;52.622;13.296;2023-08-21T18:54:42;19.30;70.50
16313;DHT22;8265;52.622;13.296;2023-08-21T19:00:04;19.20;71.20
16313;DHT22;8265;52.622;13.296;2023-08-21T19:05:24;19.00;71.00
16313;DHT22;8265;52.622;13.296;2023-08-21T19:10:45;18.90;72.20
16313;DHT22;8265;52.622;13.296;2023-08-21T19:16:06;18.80;73.90
16313;DHT22;8265;52.622;13.296;2023-08-21T19:21:27;18.80;74.40
16313;DHT22;8265;52.622;13.296;2023-08-21T19:26:48;18.80;73.10
16313;DHT22;8265;52.622;13.296;2023-08-21T19:32:09;18.60;72.80
16313;DHT22;8265;52.622;13.296;2023-08-21T19:37:31;18.50;72.90
16313;DHT22;8265;52.622;13.296;2023-08-21T19:42:51;18.30;73.60
16313;DHT22;8265;52.622;13.296;2023-08-21T19:48:12;18.10;74.80
16313;DHT22;8265;52.622;13.296;2023-08-21T19:53:33;17.90;75.70
16313;DHT22;8265;52.622;13.296;2023-08-21T19:58:54;17.80;76.60
16313;DHT22;8265;52.622;13.296;2023-08-21T20:04:15;17.70;76.30
16313;DHT22;8265;52.622;13.296;2023-08-21T20:09:39;17.50;77.20
16313;DHT22;8265;52.622;13.296;2023-08-21T20:14:57;17.50;78.40
16313;DHT22;8265;52.622;13.296;2023-08-21T20:20:18;17.50;77.60
16313;DHT22;8265;52.622;13.296;2023-08-21T20:25:41;17.40;77.60
16313;DHT22;8265;52.622;13.296;2023-08-21T20:31:00;17.30;78.10
16313;DHT22;8265;52.622;13.296;2023-08-21T20:36:21;17.20;78.30
16313;DHT22;8265;52.622;13.296;2023-08-21T20:41:42;17.20;78.10
16313;DHT22;8265;52.622;13.296;2023-08-21T20:47:03;17.20;78.50
16313;DHT22;8265;52.622;13.296;2023-08-21T20:52:24;17.00;79.70
16313;DHT22;8265;52.622;13.296;2023-08-21T20:57:45;16.90;79.50
16313;DHT22;8265;52.622;13.296;2023-08-21T21:03:06;16.80;80.20
16313;DHT22;8265;52.622;13.296;2023-08-21T21:08:27;16.70;81.50
16313;DHT22;8265;52.622;13.296;2023-08-21T21:13:48;16.60;81.50
16313;DHT22;8265;52.622;13.296;2023-08-21T21:19:09;16.50;82.00
16313;DHT22;8265;52.622;13.296;2023-08-21T21:24:30;16.50;82.40
16313;DHT22;8265;52.622;13.296;2023-08-21T21:29:51;16.60;81.80
16313;DHT22;8265;52.622;13.296;2023-08-21T21:35:12;16.80;80.90
16313;DHT22;8265;52.622;13.296;2023-08-21T21:40:33;16.90;80.40
16313;DHT22;8265;52.622;13.296;2023-08-21T21:45:54;16.80;81.60
16313;DHT22;8265;52.622;13.296;2023-08-21T21:51:15;16.70;81.40
16313;DHT22;8265;52.622;13.296;2023-08-21T21:56:37;16.60;81.60
16313;DHT22;8265;52.622;13.296;2023-08-21T22:01:57;16.60;81.40
16313;DHT22;8265;52.622;13.296;2023-08-21T22:07:18;16.60;80.10
16313;DHT22;8265;52.622;13.296;2023-08-21T22:12:39;16.60;79.50
16313;DHT22;8265;52.622;13.296;2023-08-21T22:18:00;16.70;80.20
16313;DHT22;8265;52.622;13.296;2023-08-21T22:23:21;16.80;79.00
16313;DHT22;8265;52.622;13.296;2023-08-21T22:28:42;16.90;79.00
16313;DHT22;8265;52.622;13.296;2023-08-21T22:34:03;17.00;78.70
16313;DHT22;8265;52.622;13.296;2023-08-21T22:39:24;17.20;78.10
16313;DHT22;8265;52.622;13.296;2023-08-21T22:44:45;17.50;78.10
16313;DHT22;8265;52.622;13.296;2023-08-21T22:50:06;17.60;77.20
16313;DHT22;8265;52.622;13.296;2023-08-21T22:55:27;17.80;77.20
16313;DHT22;8265;52.622;13.296;2023-08-21T23:00:48;17.80;76.50
16313;DHT22;8265;52.622;13.296;2023-08-21T23:06:09;18.00;75.60
16313;DHT22;8265;52.622;13.296;2023-08-21T23:11:30;18.00;75.60
16313;DHT22;8265;52.622;13.296;2023-08-21T23:16:51;18.00;75.70
16313;DHT22;8265;52.622;13.296;2023-08-21T23:22:12;18.00;76.60
16313;DHT22;8265;52.622;13.296;2023-08-21T23:27:33;18.00;76.50
16313;DHT22;8265;52.622;13.296;2023-08-21T23:32:54;17.90;77.30
16313;DHT22;8265;52.622;13.296;2023-08-21T23:38:15;17.80;76.60
16313;DHT22;8265;52.622;13.296;2023-08-21T23:43:36;17.80;77.30
16313;DHT22;8265;52.622;13.296;2023-08-21T23:48:57;17.60;78.20
16313;DHT22;8265;52.622;13.296;2023-08-21T23:54:18;17.50;79.10
16313;DHT22;8265;52.622;13.296;2023-08-21T23:59:39;17.70;77.30
